createdAt,value
2023-06-28T00:02:00.544Z,19.13
2023-06-28T00:04:29.127Z,19.06
2023-06-28T00:07:02.796Z,18.93
2023-06-28T00:09:34.695Z,18.83
2023-06-28T00:12:03.092Z,18.75
2023-06-28T00:14:31.449Z,18.65
2023-06-28T00:17:00.828Z,18.65
2023-06-28T00:19:29.047Z,18.60
2023-06-28T00:21:58.126Z,18.72
2023-06-28T00:24:29.181Z,18.65
2023-06-28T00:27:01.239Z,18.75
2023-06-28T00:29:29.509Z,18.80
2023-06-28T00:31:57.691Z,18.74
2023-06-28T00:34:25.868Z,18.70
2023-06-28T00:36:55.255Z,18.67
2023-06-28T00:39:25.965Z,18.63
2023-06-28T00:41:54.253Z,18.58
2023-06-28T00:44:26.453Z,18.52
2023-06-28T00:46:56.738Z,18.54
2023-06-28T00:49:26.062Z,18.46
2023-06-28T00:51:54.478Z,18.48
2023-06-28T00:54:22.618Z,18.41
2023-06-28T00:56:51.148Z,18.41
2023-06-28T00:59:20.133Z,18.35
2023-06-28T01:01:50.878Z,18.54
2023-06-28T01:04:19.245Z,18.62
2023-06-28T01:06:53.285Z,18.47
2023-06-28T01:09:23.296Z,18.41
2023-06-28T01:11:54.103Z,18.42
2023-06-28T01:14:26.415Z,18.31
2023-06-28T01:16:56.758Z,18.39
2023-06-28T01:19:26.588Z,18.32
2023-06-28T01:22:07.027Z,18.20
2023-06-28T01:24:37.290Z,18.19
2023-06-28T01:27:08.631Z,18.19
2023-06-28T01:29:43.446Z,18.15
2023-06-28T01:32:12.756Z,18.08
2023-06-28T01:34:40.979Z,18.09
2023-06-28T01:37:09.979Z,18.13
2023-06-28T01:39:42.213Z,18.13
2023-06-28T01:42:11.113Z,18.07
2023-06-28T01:44:39.726Z,18.13
2023-06-28T01:47:08.479Z,17.99
2023-06-28T01:49:38.248Z,17.85
2023-06-28T01:52:08.923Z,17.87
2023-06-28T01:54:37.562Z,17.86
2023-06-28T01:57:07.733Z,17.82
2023-06-28T01:59:36.159Z,17.86
2023-06-28T02:02:04.815Z,17.82
2023-06-28T02:04:34.602Z,17.81
2023-06-28T02:07:03.123Z,17.77
2023-06-28T02:09:31.389Z,17.71
2023-06-28T02:12:02.563Z,17.63
2023-06-28T02:14:36.026Z,17.62
2023-06-28T02:17:04.321Z,17.62
2023-06-28T02:19:34.473Z,17.58
2023-06-28T02:22:02.909Z,17.59
2023-06-28T02:24:31.452Z,17.56
2023-06-28T02:26:59.880Z,17.50
2023-06-28T02:29:28.182Z,17.31
2023-06-28T02:32:01.613Z,17.50
2023-06-28T02:34:30.111Z,17.48
2023-06-28T02:36:58.499Z,17.44
2023-06-28T02:39:26.851Z,17.52
2023-06-28T02:41:57.792Z,17.55
2023-06-28T02:44:26.086Z,17.51
2023-06-28T02:46:54.872Z,17.51
2023-06-28T02:49:25.331Z,17.51
2023-06-28T02:51:53.439Z,17.50
2023-06-28T02:55:55.329Z,17.52
2023-06-28T02:58:44.772Z,17.51
2023-06-28T03:01:16.085Z,17.49
2023-06-28T03:03:47.080Z,17.53
2023-06-28T03:06:15.923Z,17.58
2023-06-28T03:08:44.308Z,17.59
2023-06-28T03:11:14.031Z,17.57
2023-06-28T03:13:42.797Z,17.63
2023-06-28T03:16:11.084Z,17.70
2023-06-28T03:18:41.636Z,17.59
2023-06-28T03:21:12.368Z,17.59
2023-06-28T03:23:43.163Z,17.60
2023-06-28T03:26:11.302Z,17.56
2023-06-28T03:28:40.883Z,17.52
2023-06-28T03:31:12.068Z,17.58
2023-06-28T03:33:40.297Z,17.58
2023-06-28T03:36:10.851Z,17.60
2023-06-28T03:38:39.317Z,17.58
2023-06-28T03:41:08.313Z,17.57
2023-06-28T03:43:36.720Z,17.53
2023-06-28T03:46:06.695Z,17.58
2023-06-28T03:48:37.302Z,17.59
2023-06-28T03:51:06.513Z,17.46
2023-06-28T03:53:34.869Z,17.52
2023-06-28T03:56:03.096Z,17.46
2023-06-28T03:58:32.422Z,17.39
2023-06-28T04:01:03.517Z,17.47
2023-06-28T04:03:33.467Z,17.58
2023-06-28T04:06:04.047Z,17.55
2023-06-28T04:08:32.463Z,17.57
2023-06-28T04:11:01.027Z,17.62
2023-06-28T04:13:29.747Z,17.56
2023-06-28T04:16:00.764Z,17.62
2023-06-28T04:18:29.058Z,17.67
2023-06-28T04:21:01.052Z,17.59
2023-06-28T04:23:29.285Z,17.62
2023-06-28T04:26:01.539Z,17.87
2023-06-28T04:28:31.901Z,17.85
2023-06-28T04:31:00.130Z,17.72
2023-06-28T04:33:31.392Z,17.62
2023-06-28T04:36:02.776Z,17.71
2023-06-28T04:38:33.852Z,17.71
2023-06-28T04:41:04.151Z,17.86
2023-06-28T04:43:42.111Z,17.81
2023-06-28T04:46:12.986Z,17.79
2023-06-28T04:48:42.122Z,17.78
2023-06-28T04:51:11.748Z,17.83
2023-06-28T04:53:39.904Z,17.78
2023-06-28T04:56:08.388Z,17.91
2023-06-28T04:58:38.973Z,17.81
2023-06-28T05:01:08.831Z,17.78
2023-06-28T05:03:39.848Z,17.77
2023-06-28T05:06:08.413Z,17.76
2023-06-28T05:08:38.543Z,17.80
2023-06-28T05:11:08.715Z,17.86
2023-06-28T05:13:36.855Z,17.90
2023-06-28T05:16:05.475Z,17.84
2023-06-28T05:18:33.804Z,17.70
2023-06-28T05:21:02.073Z,17.79
2023-06-28T05:23:30.261Z,17.86
2023-06-28T05:26:04.442Z,17.82
2023-06-28T05:28:32.586Z,17.96
2023-06-28T05:31:02.253Z,18.04
2023-06-28T05:33:31.124Z,18.02
2023-06-28T05:35:59.528Z,18.14
2023-06-28T05:38:27.830Z,18.11
2023-06-28T05:40:57.429Z,18.17
2023-06-28T05:43:27.274Z,18.17
2023-06-28T05:45:55.944Z,18.30
2023-06-28T05:48:24.576Z,18.27
2023-06-28T05:50:53.055Z,18.16
2023-06-28T05:53:21.670Z,18.09
2023-06-28T05:55:50.141Z,18.10
2023-06-28T05:58:20.842Z,18.13
2023-06-28T06:00:50.721Z,18.25
2023-06-28T06:03:19.857Z,18.28
2023-06-28T06:05:48.212Z,18.41
2023-06-28T06:08:16.578Z,18.41
2023-06-28T06:10:46.710Z,18.57
2023-06-28T06:13:17.743Z,18.62
2023-06-28T06:15:45.982Z,18.72
2023-06-28T06:18:15.839Z,18.62
2023-06-28T06:20:46.095Z,18.79
2023-06-28T06:23:17.489Z,18.80
2023-06-28T06:25:46.222Z,19.03
2023-06-28T06:28:18.107Z,19.17
2023-06-28T06:30:46.504Z,19.17
2023-06-28T06:33:16.592Z,19.18
2023-06-28T06:35:45.088Z,19.18
2023-06-28T06:38:13.370Z,19.17
2023-06-28T06:40:46.234Z,19.23
2023-06-28T06:43:14.410Z,19.41
2023-06-28T06:45:42.883Z,19.30
2023-06-28T06:48:11.489Z,19.31
2023-06-28T06:50:41.539Z,19.35
2023-06-28T06:53:13.665Z,19.34
2023-06-28T06:55:41.905Z,19.40
2023-06-28T06:58:10.324Z,19.49
2023-06-28T07:00:38.625Z,19.45
2023-06-28T07:03:06.849Z,19.50
2023-06-28T07:05:37.420Z,19.82
2023-06-28T07:08:07.258Z,20.01
2023-06-28T07:10:36.030Z,20.04
2023-06-28T07:13:06.281Z,20.04
2023-06-28T07:15:35.284Z,20.07
2023-06-28T07:18:03.532Z,20.34
2023-06-28T07:20:31.899Z,20.38
2023-06-28T07:23:00.200Z,20.28
2023-06-28T07:25:30.249Z,20.70
2023-06-28T07:28:00.214Z,20.86
2023-06-28T07:30:31.675Z,21.01
2023-06-28T07:33:00.106Z,20.99
2023-06-28T07:35:28.378Z,21.06
2023-06-28T07:37:56.811Z,20.95
2023-06-28T07:40:25.547Z,20.91
2023-06-28T07:42:55.207Z,21.16
2023-06-28T07:45:23.565Z,21.15
2023-06-28T07:47:51.719Z,21.26
2023-06-28T07:50:21.728Z,21.46
2023-06-28T07:52:53.523Z,21.58
2023-06-28T07:57:00.694Z,21.65
2023-06-28T07:59:29.030Z,21.64
2023-06-28T08:02:00.876Z,21.87
2023-06-28T08:04:30.374Z,22.00
2023-06-28T08:06:58.664Z,22.06
2023-06-28T08:09:26.982Z,22.14
2023-06-28T08:11:55.871Z,22.54
2023-06-28T08:14:29.661Z,22.36
2023-06-28T08:16:58.310Z,22.48
2023-06-28T08:19:26.785Z,22.77
2023-06-28T08:21:55.170Z,22.90
2023-06-28T08:24:25.972Z,22.40
2023-06-28T08:26:54.232Z,22.42
2023-06-28T08:29:24.686Z,22.25
2023-06-28T08:31:54.857Z,22.35
2023-06-28T08:34:25.535Z,22.53
2023-06-28T08:36:54.208Z,22.90
2023-06-28T08:39:22.631Z,23.02
2023-06-28T08:41:53.623Z,23.27
2023-06-28T08:44:25.007Z,23.35
2023-06-28T08:46:56.607Z,23.13
2023-06-28T08:49:26.834Z,23.66
2023-06-28T08:51:58.799Z,23.47
2023-06-28T08:54:29.656Z,23.22
2023-06-28T08:57:11.346Z,23.03
2023-06-28T08:59:45.015Z,22.90
2023-06-28T09:02:18.408Z,23.72
2023-06-28T09:04:49.741Z,24.42
2023-06-28T09:07:20.382Z,24.52
2023-06-28T09:09:50.399Z,24.02
2023-06-28T09:12:19.300Z,23.95
2023-06-28T09:14:47.858Z,24.26
2023-06-28T09:17:17.971Z,24.68
2023-06-28T09:19:46.108Z,25.33
2023-06-28T09:22:14.800Z,26.03
2023-06-28T09:24:42.990Z,25.99
2023-06-28T09:27:14.020Z,26.39
2023-06-28T09:29:44.932Z,26.02
2023-06-28T09:32:13.274Z,26.01
2023-06-28T09:34:45.858Z,24.77
2023-06-28T09:37:14.160Z,26.07
2023-06-28T09:39:43.169Z,25.74
2023-06-28T09:42:12.744Z,24.99
2023-06-28T09:44:41.829Z,25.68
2023-06-28T09:47:10.370Z,25.32
2023-06-28T09:49:40.683Z,25.60
2023-06-28T09:52:10.791Z,25.41
2023-06-28T09:54:46.441Z,25.75
2023-06-28T09:57:15.512Z,25.80
2023-06-28T09:59:45.855Z,26.34
2023-06-28T10:02:15.023Z,26.52
2023-06-28T10:04:44.820Z,27.15
2023-06-28T10:07:20.028Z,27.48
2023-06-28T10:09:48.477Z,27.71
2023-06-28T10:12:18.954Z,28.19
2023-06-28T10:14:51.477Z,28.88
2023-06-28T10:17:19.937Z,28.29
2023-06-28T10:19:50.871Z,28.18
2023-06-28T10:22:23.293Z,28.46
2023-06-28T10:24:53.501Z,28.32
2023-06-28T10:27:25.106Z,27.65
2023-06-28T10:29:55.368Z,26.78
2023-06-28T10:32:26.038Z,26.83
2023-06-28T10:34:54.591Z,26.46
2023-06-28T10:37:25.200Z,26.96
2023-06-28T10:39:54.708Z,26.45
2023-06-28T10:42:23.492Z,26.26
2023-06-28T10:44:56.006Z,26.80
2023-06-28T10:47:26.848Z,26.87
2023-06-28T10:50:09.785Z,26.39
2023-06-28T10:52:46.621Z,26.63
2023-06-28T10:55:15.325Z,26.96
2023-06-28T10:57:43.601Z,27.17
2023-06-28T11:00:44.117Z,27.15
2023-06-28T11:03:12.861Z,27.76
2023-06-28T11:05:42.986Z,27.62
2023-06-28T11:08:16.358Z,28.01
2023-06-28T11:10:46.801Z,27.79
2023-06-28T11:13:16.595Z,27.50
2023-06-28T11:15:46.106Z,28.10
2023-06-28T11:18:19.780Z,27.90
2023-06-28T11:20:53.123Z,27.33
2023-06-28T11:23:37.104Z,27.27
2023-06-28T11:26:06.883Z,27.47
2023-06-28T11:28:36.667Z,27.75
2023-06-28T11:31:15.933Z,27.67
2023-06-28T11:33:45.871Z,27.54
2023-06-28T11:36:15.193Z,28.45
2023-06-28T11:38:48.500Z,27.40
2023-06-28T11:41:17.212Z,27.43
2023-06-28T11:43:46.719Z,27.57
2023-06-28T11:46:19.780Z,26.96
2023-06-28T11:48:48.932Z,26.89
2023-06-28T11:51:18.405Z,26.80
2023-06-28T11:53:51.189Z,26.44
2023-06-28T11:56:19.388Z,26.33
2023-06-28T11:58:49.999Z,26.31
2023-06-28T12:01:23.377Z,25.70
2023-06-28T12:03:51.833Z,25.95
2023-06-28T12:06:20.305Z,26.62
2023-06-28T12:08:48.614Z,27.23
2023-06-28T12:11:19.453Z,27.66
2023-06-28T12:13:53.292Z,28.25
2023-06-28T12:16:22.803Z,28.54
2023-06-28T12:18:57.000Z,28.92
2023-06-28T12:21:26.050Z,29.31
2023-06-28T12:24:13.631Z,29.31
2023-06-28T12:26:46.671Z,29.57
2023-06-28T12:29:15.024Z,28.49
2023-06-28T12:31:46.809Z,28.35
2023-06-28T12:34:25.084Z,28.60
2023-06-28T12:36:55.662Z,28.12
2023-06-28T12:39:25.140Z,27.61
2023-06-28T12:42:07.270Z,27.73
2023-06-28T12:44:50.681Z,27.45
2023-06-28T12:47:41.268Z,27.48
2023-06-28T12:50:11.244Z,27.38
2023-06-28T12:52:39.732Z,27.78
2023-06-28T12:58:01.985Z,28.17
2023-06-28T13:00:30.433Z,28.15
2023-06-28T13:02:58.703Z,27.90
2023-06-28T13:05:27.120Z,27.66
2023-06-28T13:07:55.557Z,27.55
2023-06-28T13:10:23.983Z,26.99
2023-06-28T13:12:52.273Z,27.08
2023-06-28T13:15:24.292Z,26.96
2023-06-28T13:17:52.560Z,27.34
2023-06-28T13:20:21.070Z,27.54
2023-06-28T13:22:49.650Z,27.44
2023-06-28T13:25:21.963Z,28.05
2023-06-28T13:27:50.714Z,28.05
2023-06-28T13:30:18.927Z,26.95
2023-06-28T13:32:48.768Z,27.21
2023-06-28T13:35:17.240Z,27.26
2023-06-28T13:37:46.312Z,26.41
2023-06-28T13:40:15.419Z,26.39
2023-06-28T13:42:44.584Z,26.05
2023-06-28T13:45:13.340Z,26.21
2023-06-28T13:47:44.113Z,26.17
2023-06-28T13:50:16.018Z,26.10
2023-06-28T13:52:46.528Z,26.19
2023-06-28T13:55:17.778Z,26.06
2023-06-28T13:57:46.237Z,26.17
2023-06-28T14:00:15.422Z,26.85
2023-06-28T14:02:49.717Z,26.59
2023-06-28T14:05:21.903Z,26.88
2023-06-28T14:07:53.511Z,26.57
2023-06-28T14:10:21.880Z,26.61
2023-06-28T14:12:50.302Z,26.03
2023-06-28T14:15:18.806Z,26.10
2023-06-28T14:17:47.742Z,26.27
2023-06-28T14:20:19.695Z,26.38
2023-06-28T14:22:51.742Z,26.33
2023-06-28T14:25:20.289Z,26.45
2023-06-28T14:27:48.620Z,26.52
2023-06-28T14:30:17.344Z,26.59
2023-06-28T14:32:47.949Z,26.71
2023-06-28T14:35:16.601Z,26.81
2023-06-28T14:37:46.336Z,26.92
2023-06-28T14:40:15.497Z,26.95
2023-06-28T14:42:43.784Z,26.27
2023-06-28T14:45:14.780Z,26.21
2023-06-28T14:47:46.309Z,26.39
2023-06-28T14:50:14.575Z,26.75
2023-06-28T14:52:42.932Z,26.91
2023-06-28T14:55:12.910Z,26.96
2023-06-28T14:57:41.061Z,26.91
2023-06-28T15:00:10.978Z,27.05
2023-06-28T15:02:39.173Z,26.69
2023-06-28T15:05:07.835Z,26.46
2023-06-28T15:07:36.296Z,26.82
2023-06-28T15:10:08.472Z,26.46
2023-06-28T15:12:40.318Z,26.99
2023-06-28T15:15:10.000Z,27.17
2023-06-28T15:17:38.334Z,26.83
2023-06-28T15:20:07.503Z,26.65
2023-06-28T15:22:35.942Z,26.29
2023-06-28T15:25:04.718Z,26.19
2023-06-28T15:27:38.965Z,25.92
2023-06-28T15:30:10.044Z,25.60
2023-06-28T15:35:24.633Z,25.62
2023-06-28T15:37:52.842Z,25.50
2023-06-28T15:40:21.050Z,25.33
2023-06-28T15:42:49.373Z,25.24
2023-06-28T15:45:20.050Z,25.37
2023-06-28T15:47:48.499Z,25.32
2023-06-28T15:50:16.833Z,25.42
2023-06-28T15:52:45.091Z,25.06
2023-06-28T15:55:16.194Z,24.93
2023-06-28T15:57:46.782Z,25.27
2023-06-28T16:00:16.288Z,25.00
2023-06-28T16:03:05.223Z,24.64
2023-06-28T16:05:36.491Z,24.53
2023-06-28T16:08:05.099Z,24.38
2023-06-28T16:10:35.898Z,24.48
2023-06-28T16:13:04.909Z,24.44
2023-06-28T16:15:33.249Z,24.49
2023-06-28T16:18:01.982Z,24.62
2023-06-28T16:20:36.939Z,24.44
2023-06-28T16:23:05.374Z,24.41
2023-06-28T16:25:33.590Z,24.31
2023-06-28T16:28:04.374Z,24.35
2023-06-28T16:30:32.722Z,24.24
2023-06-28T16:33:00.999Z,24.08
2023-06-28T16:35:29.236Z,24.04
2023-06-28T16:38:02.109Z,24.08
2023-06-28T16:40:32.785Z,24.18
2023-06-28T16:43:04.859Z,24.07
2023-06-28T16:45:33.239Z,24.00
2023-06-28T16:48:01.804Z,24.06
2023-06-28T16:50:30.203Z,24.23
2023-06-28T16:52:58.466Z,24.17
2023-06-28T16:55:29.464Z,24.07
2023-06-28T16:57:58.221Z,24.08
2023-06-28T17:00:26.713Z,24.01
2023-06-28T17:02:57.876Z,24.13
2023-06-28T17:05:26.333Z,24.12
2023-06-28T17:07:57.434Z,24.20
2023-06-28T17:10:25.945Z,24.21
2023-06-28T17:12:55.552Z,24.29
2023-06-28T17:15:24.020Z,24.23
2023-06-28T17:17:52.227Z,24.28
2023-06-28T17:20:21.645Z,24.20
2023-06-28T17:22:50.031Z,24.08
2023-06-28T17:25:18.754Z,24.06
2023-06-28T17:27:47.963Z,24.01
2023-06-28T17:30:17.846Z,24.02
2023-06-28T17:32:46.390Z,24.10
2023-06-28T17:35:15.033Z,23.99
2023-06-28T17:37:43.289Z,24.01
2023-06-28T17:40:11.771Z,24.09
2023-06-28T17:42:40.393Z,24.02
2023-06-28T17:45:09.786Z,24.06
2023-06-28T17:47:42.648Z,24.05
2023-06-28T17:50:12.578Z,24.05
2023-06-28T17:52:40.971Z,24.10
2023-06-28T17:55:10.172Z,24.18
2023-06-28T17:59:03.245Z,23.94
2023-06-28T18:01:31.652Z,23.84
2023-06-28T18:04:03.722Z,23.74
2023-06-28T18:06:34.790Z,23.54
2023-06-28T18:09:04.216Z,23.54
2023-06-28T18:11:32.414Z,23.38
2023-06-28T18:14:02.354Z,23.40
2023-06-28T18:16:31.037Z,23.33
2023-06-28T18:18:59.272Z,23.29
2023-06-28T18:21:27.556Z,23.14
2023-06-28T18:23:55.834Z,23.17
2023-06-28T18:26:24.268Z,23.09
2023-06-28T18:28:52.675Z,23.01
2023-06-28T18:31:24.706Z,22.95
2023-06-28T18:33:55.516Z,22.85
2023-06-28T18:36:23.894Z,22.78
2023-06-28T18:38:52.112Z,22.69
2023-06-28T18:41:20.444Z,22.64
2023-06-28T18:43:49.015Z,22.57
2023-06-28T18:46:20.246Z,22.55
2023-06-28T18:48:49.967Z,22.47
2023-06-28T18:51:20.002Z,22.42
2023-06-28T18:53:48.662Z,22.32
2023-06-28T18:56:16.867Z,22.29
2023-06-28T18:58:45.126Z,22.20
2023-06-28T19:01:31.905Z,22.10
2023-06-28T19:04:01.551Z,22.09
2023-06-28T19:06:29.752Z,22.07
2023-06-28T19:08:58.706Z,22.00
2023-06-28T19:11:27.008Z,21.92
2023-06-28T19:13:55.265Z,21.87
2023-06-28T19:16:24.083Z,21.76
2023-06-28T19:18:52.441Z,21.61
2023-06-28T19:21:22.014Z,21.64
2023-06-28T19:23:50.838Z,21.55
2023-06-28T19:26:23.959Z,21.54
2023-06-28T19:28:52.430Z,21.48
2023-06-28T19:31:20.626Z,21.49
2023-06-28T19:33:48.762Z,21.45
2023-06-28T19:36:17.116Z,21.43
2023-06-28T19:38:46.771Z,21.28
2023-06-28T19:41:18.142Z,21.17
2023-06-28T19:43:46.427Z,21.18
2023-06-28T19:46:15.045Z,21.17
2023-06-28T19:48:46.397Z,21.21
2023-06-28T19:51:17.008Z,21.10
2023-06-28T19:53:48.979Z,21.00
2023-06-28T19:56:17.203Z,21.15
2023-06-28T19:58:45.500Z,21.00
2023-06-28T20:01:19.381Z,21.03
2023-06-28T20:03:50.034Z,20.89
2023-06-28T20:06:18.248Z,20.83
2023-06-28T20:08:49.443Z,20.78
2023-06-28T20:11:20.475Z,20.62
2023-06-28T20:13:48.733Z,20.59
2023-06-28T20:16:17.142Z,20.55
2023-06-28T20:18:45.564Z,20.48
2023-06-28T20:21:14.737Z,20.37
2023-06-28T20:23:43.045Z,20.37
2023-06-28T20:26:12.952Z,20.26
2023-06-28T20:28:42.578Z,20.16
2023-06-28T20:31:10.911Z,20.08
2023-06-28T20:33:41.834Z,20.05
2023-06-28T20:36:10.406Z,20.18
2023-06-28T20:38:40.949Z,20.11
2023-06-28T20:41:10.536Z,20.02
2023-06-28T20:43:41.618Z,19.89
2023-06-28T20:46:10.104Z,19.82
2023-06-28T20:48:41.555Z,19.77
2023-06-28T20:51:12.340Z,19.76
2023-06-28T20:53:43.819Z,19.71
2023-06-28T20:56:12.747Z,19.69
2023-06-28T21:04:21.668Z,19.53
2023-06-28T21:06:49.935Z,19.53
2023-06-28T21:09:20.496Z,19.45
2023-06-28T21:11:48.883Z,19.35
2023-06-28T21:14:19.015Z,19.30
2023-06-28T21:16:50.029Z,19.22
2023-06-28T21:19:18.843Z,19.12
2023-06-28T21:21:49.793Z,19.03
2023-06-28T21:24:18.309Z,18.97
2023-06-28T21:26:46.929Z,18.91
2023-06-28T21:29:18.749Z,18.87
2023-06-28T21:31:49.173Z,18.82
2023-06-28T21:34:17.751Z,18.74
2023-06-28T21:36:45.917Z,18.67
2023-06-28T21:39:14.279Z,18.61
2023-06-28T21:41:44.776Z,18.57
2023-06-28T21:44:12.947Z,18.58
2023-06-28T21:46:42.621Z,18.52
2023-06-28T21:49:10.793Z,18.43
2023-06-28T21:51:41.356Z,18.52
2023-06-28T21:54:09.650Z,18.32
2023-06-28T21:56:39.934Z,18.22
2023-06-28T21:59:08.090Z,18.23
2023-06-28T22:01:36.389Z,18.17
2023-06-28T22:04:06.302Z,18.50
2023-06-28T22:06:35.288Z,18.40
2023-06-28T22:09:07.260Z,18.32
2023-06-28T22:11:35.596Z,18.43
2023-06-28T22:14:05.192Z,18.13
2023-06-28T22:16:41.645Z,18.59
2023-06-28T22:19:11.404Z,18.48
2023-06-28T22:21:42.056Z,18.41
2023-06-28T22:24:10.531Z,18.14
2023-06-28T22:26:39.602Z,18.25
2023-06-28T22:29:07.998Z,18.17
2023-06-28T22:31:36.326Z,18.09
2023-06-28T22:34:04.570Z,18.04
2023-06-28T22:36:37.699Z,17.93
2023-06-28T22:39:06.801Z,17.93
2023-06-28T22:41:35.150Z,17.97
2023-06-28T22:44:03.791Z,17.96
2023-06-28T22:46:34.741Z,17.99
2023-06-28T22:49:03.284Z,17.92
2023-06-28T22:51:40.654Z,17.96
2023-06-28T22:54:12.089Z,18.07
2023-06-28T23:00:04.066Z,17.96
2023-06-28T23:02:33.199Z,17.82
2023-06-28T23:05:01.745Z,17.72
2023-06-28T23:07:33.165Z,17.68
2023-06-28T23:10:04.061Z,17.64
2023-06-28T23:12:38.656Z,17.46
2023-06-28T23:15:11.120Z,17.42
2023-06-28T23:17:39.898Z,17.46
2023-06-28T23:20:09.223Z,17.46
2023-06-28T23:22:38.015Z,17.36
2023-06-28T23:25:07.848Z,17.31
2023-06-28T23:27:40.542Z,17.21
2023-06-28T23:30:12.652Z,17.14
2023-06-28T23:32:40.885Z,17.22
2023-06-28T23:35:09.966Z,17.20
2023-06-28T23:37:40.541Z,17.19
2023-06-28T23:40:11.853Z,17.48
2023-06-28T23:42:42.293Z,17.36
2023-06-28T23:45:12.667Z,17.04
2023-06-28T23:47:44.214Z,17.11
2023-06-28T23:50:13.217Z,16.98
2023-06-28T23:52:41.339Z,16.84
2023-06-28T23:55:10.258Z,16.81
2023-06-28T23:57:38.349Z,16.66
